sensor_id;sensor_type;location;lat;lon;timestamp;temperature;humidity
46652;DHT22;32377;52.182;5.398;2023-05-17T00:02:25;8.60;99.90
46652;DHT22;32377;52.182;5.398;2023-05-17T00:04:50;8.60;99.90
46652;DHT22;32377;52.182;5.398;2023-05-17T00:07:17;8.60;99.90
46652;DHT22;32377;52.182;5.398;2023-05-17T00:09:43;8.50;99.90
46652;DHT22;32377;52.182;5.398;2023-05-17T00:12:09;8.50;99.90
46652;DHT22;32377;52.182;5.398;2023-05-17T00:14:34;8.50;99.90
46652;DHT22;32377;52.182;5.398;2023-05-17T00:17:00;8.60;99.90
46652;DHT22;32377;52.182;5.398;2023-05-17T00:19:25;8.70;99.90
46652;DHT22;32377;52.182;5.398;2023-05-17T00:21:51;8.80;99.90
46652;DHT22;32377;52.182;5.398;2023-05-17T00:24:16;8.90;99.90
46652;DHT22;32377;52.182;5.398;2023-05-17T00:26:42;9.00;99.90
46652;DHT22;32377;52.182;5.398;2023-05-17T00:29:08;9.00;99.90
46652;DHT22;32377;52.182;5.398;2023-05-17T00:31:33;9.10;99.90
46652;DHT22;32377;52.182;5.398;2023-05-17T00:33:59;9.10;99.90
46652;DHT22;32377;52.182;5.398;2023-05-17T00:36:24;9.00;99.90
46652;DHT22;32377;52.182;5.398;2023-05-17T00:38:50;9.00;99.90
46652;DHT22;32377;52.182;5.398;2023-05-17T00:41:15;8.90;99.90
46652;DHT22;32377;52.182;5.398;2023-05-17T00:43:42;8.80;99.90
46652;DHT22;32377;52.182;5.398;2023-05-17T00:46:07;8.80;99.90
46652;DHT22;32377;52.182;5.398;2023-05-17T00:48:33;8.80;99.90
46652;DHT22;32377;52.182;5.398;2023-05-17T00:50:59;8.80;99.90
46652;DHT22;32377;52.182;5.398;2023-05-17T00:53:25;8.70;99.90
46652;DHT22;32377;52.182;5.398;2023-05-17T00:55:51;8.70;99.90
46652;DHT22;32377;52.182;5.398;2023-05-17T00:58:17;8.60;99.90
46652;DHT22;32377;52.182;5.398;2023-05-17T01:00:43;8.60;99.90
46652;DHT22;32377;52.182;5.398;2023-05-17T01:03:09;8.60;99.90
46652;DHT22;32377;52.182;5.398;2023-05-17T01:05:35;8.70;99.90
46652;DHT22;32377;52.182;5.398;2023-05-17T01:08:01;8.80;99.90
46652;DHT22;32377;52.182;5.398;2023-05-17T01:16:06;8.80;99.90
46652;DHT22;32377;52.182;5.398;2023-05-17T01:18:40;8.80;99.90
46652;DHT22;32377;52.182;5.398;2023-05-17T01:24:02;8.80;99.90
46652;DHT22;32377;52.182;5.398;2023-05-17T01:26:39;8.90;99.90
46652;DHT22;32377;52.182;5.398;2023-05-17T01:29:07;8.90;99.90
46652;DHT22;32377;52.182;5.398;2023-05-17T01:31:35;9.00;99.90
46652;DHT22;32377;52.182;5.398;2023-05-17T01:34:01;9.10;99.90
46652;DHT22;32377;52.182;5.398;2023-05-17T01:36:30;9.10;99.90
46652;DHT22;32377;52.182;5.398;2023-05-17T01:38:56;9.10;99.90
46652;DHT22;32377;52.182;5.398;2023-05-17T01:41:23;9.10;99.90
46652;DHT22;32377;52.182;5.398;2023-05-17T01:46:42;9.20;99.90
46652;DHT22;32377;52.182;5.398;2023-05-17T01:49:20;9.20;99.90
46652;DHT22;32377;52.182;5.398;2023-05-17T01:54:23;9.10;99.90
46652;DHT22;32377;52.182;5.398;2023-05-17T01:56:57;9.10;99.90
46652;DHT22;32377;52.182;5.398;2023-05-17T01:59:23;9.20;99.90
46652;DHT22;32377;52.182;5.398;2023-05-17T02:01:57;9.20;99.90
46652;DHT22;32377;52.182;5.398;2023-05-17T02:04:29;9.30;99.90
46652;DHT22;32377;52.182;5.398;2023-05-17T02:06:54;9.30;99.90
46652;DHT22;32377;52.182;5.398;2023-05-17T02:09:20;9.40;99.90
46652;DHT22;32377;52.182;5.398;2023-05-17T02:11:46;9.40;99.90
46652;DHT22;32377;52.182;5.398;2023-05-17T02:14:11;9.50;99.90
46652;DHT22;32377;52.182;5.398;2023-05-17T02:16:37;9.50;99.90
46652;DHT22;32377;52.182;5.398;2023-05-17T02:19:02;9.50;99.90
46652;DHT22;32377;52.182;5.398;2023-05-17T02:21:28;9.60;99.90
46652;DHT22;32377;52.182;5.398;2023-05-17T02:23:53;9.60;99.90
46652;DHT22;32377;52.182;5.398;2023-05-17T02:26:19;9.60;99.90
46652;DHT22;32377;52.182;5.398;2023-05-17T02:28:44;9.60;99.90
46652;DHT22;32377;52.182;5.398;2023-05-17T02:31:11;9.60;99.90
46652;DHT22;32377;52.182;5.398;2023-05-17T02:33:38;9.60;99.90
46652;DHT22;32377;52.182;5.398;2023-05-17T02:36:04;9.70;99.90
46652;DHT22;32377;52.182;5.398;2023-05-17T02:38:29;9.70;99.90
46652;DHT22;32377;52.182;5.398;2023-05-17T02:40:55;9.80;99.90
46652;DHT22;32377;52.182;5.398;2023-05-17T02:43:20;9.90;99.90
46652;DHT22;32377;52.182;5.398;2023-05-17T02:45:46;9.80;99.90
46652;DHT22;32377;52.182;5.398;2023-05-17T02:48:11;9.90;99.90
46652;DHT22;32377;52.182;5.398;2023-05-17T02:50:37;9.90;99.90
46652;DHT22;32377;52.182;5.398;2023-05-17T02:53:03;9.90;99.90
46652;DHT22;32377;52.182;5.398;2023-05-17T02:55:28;9.90;99.90
46652;DHT22;32377;52.182;5.398;2023-05-17T02:57:54;9.90;99.90
46652;DHT22;32377;52.182;5.398;2023-05-17T03:00:19;9.90;99.90
46652;DHT22;32377;52.182;5.398;2023-05-17T03:02:45;9.80;99.90
46652;DHT22;32377;52.182;5.398;2023-05-17T03:05:11;9.80;99.90
46652;DHT22;32377;52.182;5.398;2023-05-17T03:07:37;9.70;99.90
46652;DHT22;32377;52.182;5.398;2023-05-17T03:10:02;9.70;99.90
46652;DHT22;32377;52.182;5.398;2023-05-17T03:12:28;9.70;99.90
46652;DHT22;32377;52.182;5.398;2023-05-17T03:14:53;9.60;99.90
46652;DHT22;32377;52.182;5.398;2023-05-17T03:17:19;9.60;99.90
46652;DHT22;32377;52.182;5.398;2023-05-17T03:19:44;9.60;99.90
46652;DHT22;32377;52.182;5.398;2023-05-17T03:22:10;9.50;99.90
46652;DHT22;32377;52.182;5.398;2023-05-17T03:24:35;9.50;99.90
46652;DHT22;32377;52.182;5.398;2023-05-17T03:27:01;9.50;99.90
46652;DHT22;32377;52.182;5.398;2023-05-17T03:29:26;9.40;99.90
46652;DHT22;32377;52.182;5.398;2023-05-17T03:31:52;9.40;99.90
46652;DHT22;32377;52.182;5.398;2023-05-17T03:34:18;9.40;99.90
46652;DHT22;32377;52.182;5.398;2023-05-17T03:36:43;9.40;99.90
46652;DHT22;32377;52.182;5.398;2023-05-17T03:39:09;9.30;99.90
46652;DHT22;32377;52.182;5.398;2023-05-17T03:41:34;9.30;99.90
46652;DHT22;32377;52.182;5.398;2023-05-17T03:44:00;9.20;99.90
46652;DHT22;32377;52.182;5.398;2023-05-17T03:46:26;9.20;99.90
46652;DHT22;32377;52.182;5.398;2023-05-17T03:48:51;9.10;99.90
46652;DHT22;32377;52.182;5.398;2023-05-17T03:51:17;9.10;99.90
46652;DHT22;32377;52.182;5.398;2023-05-17T03:53:43;9.10;99.90
46652;DHT22;32377;52.182;5.398;2023-05-17T03:59:25;9.10;99.90
46652;DHT22;32377;52.182;5.398;2023-05-17T04:01:51;9.00;99.90
46652;DHT22;32377;52.182;5.398;2023-05-17T04:04:16;8.90;99.90
46652;DHT22;32377;52.182;5.398;2023-05-17T04:06:42;9.00;99.90
46652;DHT22;32377;52.182;5.398;2023-05-17T04:09:07;8.90;99.90
46652;DHT22;32377;52.182;5.398;2023-05-17T04:11:35;8.90;99.90
46652;DHT22;32377;52.182;5.398;2023-05-17T04:14:03;8.90;99.90
46652;DHT22;32377;52.182;5.398;2023-05-17T04:16:29;8.90;99.90
46652;DHT22;32377;52.182;5.398;2023-05-17T04:18:54;8.90;99.90
46652;DHT22;32377;52.182;5.398;2023-05-17T04:21:20;8.90;99.90
46652;DHT22;32377;52.182;5.398;2023-05-17T04:23:46;8.80;99.90
46652;DHT22;32377;52.182;5.398;2023-05-17T04:26:12;8.80;99.90
46652;DHT22;32377;52.182;5.398;2023-05-17T04:28:39;8.80;99.90
46652;DHT22;32377;52.182;5.398;2023-05-17T04:31:08;8.80;99.90
46652;DHT22;32377;52.182;5.398;2023-05-17T04:33:37;8.80;99.90
46652;DHT22;32377;52.182;5.398;2023-05-17T04:36:03;8.80;99.90
46652;DHT22;32377;52.182;5.398;2023-05-17T04:38:28;8.70;99.90
46652;DHT22;32377;52.182;5.398;2023-05-17T04:41:00;8.80;99.90
46652;DHT22;32377;52.182;5.398;2023-05-17T04:43:26;8.90;99.90
46652;DHT22;32377;52.182;5.398;2023-05-17T04:45:55;8.90;99.90
46652;DHT22;32377;52.182;5.398;2023-05-17T04:48:22;9.00;99.90
46652;DHT22;32377;52.182;5.398;2023-05-17T04:50:47;9.00;99.90
46652;DHT22;32377;52.182;5.398;2023-05-17T04:53:13;9.10;99.90
46652;DHT22;32377;52.182;5.398;2023-05-17T04:55:40;9.10;99.90
46652;DHT22;32377;52.182;5.398;2023-05-17T04:58:05;9.20;99.90
46652;DHT22;32377;52.182;5.398;2023-05-17T05:00:31;9.30;99.90
46652;DHT22;32377;52.182;5.398;2023-05-17T05:02:56;9.40;99.90
46652;DHT22;32377;52.182;5.398;2023-05-17T05:05:22;9.40;99.90
46652;DHT22;32377;52.182;5.398;2023-05-17T05:07:49;9.50;99.90
46652;DHT22;32377;52.182;5.398;2023-05-17T05:10:15;9.50;99.90
46652;DHT22;32377;52.182;5.398;2023-05-17T05:12:41;9.50;99.90
46652;DHT22;32377;52.182;5.398;2023-05-17T05:15:07;9.70;99.90
46652;DHT22;32377;52.182;5.398;2023-05-17T05:17:33;9.80;99.90
46652;DHT22;32377;52.182;5.398;2023-05-17T05:19:58;9.90;99.90
46652;DHT22;32377;52.182;5.398;2023-05-17T05:22:24;10.00;99.90
46652;DHT22;32377;52.182;5.398;2023-05-17T05:24:50;10.00;99.90
46652;DHT22;32377;52.182;5.398;2023-05-17T05:27:16;10.10;99.90
46652;DHT22;32377;52.182;5.398;2023-05-17T05:29:42;10.20;99.90
46652;DHT22;32377;52.182;5.398;2023-05-17T05:32:08;10.30;99.90
46652;DHT22;32377;52.182;5.398;2023-05-17T05:34:33;10.40;99.90
46652;DHT22;32377;52.182;5.398;2023-05-17T05:36:59;10.60;99.90
46652;DHT22;32377;52.182;5.398;2023-05-17T05:39:25;10.80;99.90
46652;DHT22;32377;52.182;5.398;2023-05-17T05:41:52;10.80;99.90
46652;DHT22;32377;52.182;5.398;2023-05-17T05:44:18;10.90;99.90
46652;DHT22;32377;52.182;5.398;2023-05-17T05:46:43;11.00;99.90
46652;DHT22;32377;52.182;5.398;2023-05-17T05:49:09;11.10;99.90
46652;DHT22;32377;52.182;5.398;2023-05-17T05:51:35;11.10;99.90
46652;DHT22;32377;52.182;5.398;2023-05-17T05:54:00;11.20;99.90
46652;DHT22;32377;52.182;5.398;2023-05-17T05:56:26;11.30;99.90
46652;DHT22;32377;52.182;5.398;2023-05-17T05:58:53;11.30;99.90
46652;DHT22;32377;52.182;5.398;2023-05-17T06:01:19;11.40;99.90
46652;DHT22;32377;52.182;5.398;2023-05-17T06:03:45;11.40;99.90
46652;DHT22;32377;52.182;5.398;2023-05-17T06:06:11;11.40;99.90
46652;DHT22;32377;52.182;5.398;2023-05-17T06:08:36;11.40;99.90
46652;DHT22;32377;52.182;5.398;2023-05-17T06:11:02;11.50;99.90
46652;DHT22;32377;52.182;5.398;2023-05-17T06:13:28;11.60;99.90
46652;DHT22;32377;52.182;5.398;2023-05-17T06:15:54;11.80;99.90
46652;DHT22;32377;52.182;5.398;2023-05-17T06:18:20;11.70;99.90
46652;DHT22;32377;52.182;5.398;2023-05-17T06:20:45;11.80;99.90
46652;DHT22;32377;52.182;5.398;2023-05-17T06:23:11;11.90;99.90
46652;DHT22;32377;52.182;5.398;2023-05-17T06:25:36;12.00;99.90
46652;DHT22;32377;52.182;5.398;2023-05-17T06:28:03;12.00;99.90
46652;DHT22;32377;52.182;5.398;2023-05-17T06:30:29;12.10;99.90
46652;DHT22;32377;52.182;5.398;2023-05-17T06:32:55;12.20;99.90
46652;DHT22;32377;52.182;5.398;2023-05-17T06:35:20;12.30;99.90
46652;DHT22;32377;52.182;5.398;2023-05-17T06:37:46;12.30;99.90
46652;DHT22;32377;52.182;5.398;2023-05-17T06:40:11;12.20;99.90
46652;DHT22;32377;52.182;5.398;2023-05-17T06:42:37;12.00;99.90
46652;DHT22;32377;52.182;5.398;2023-05-17T06:45:03;12.10;99.90
46652;DHT22;32377;52.182;5.398;2023-05-17T06:47:28;12.20;99.90
46652;DHT22;32377;52.182;5.398;2023-05-17T06:49:54;12.30;99.90
46652;DHT22;32377;52.182;5.398;2023-05-17T06:52:20;12.30;99.90
46652;DHT22;32377;52.182;5.398;2023-05-17T06:54:45;12.30;99.90
46652;DHT22;32377;52.182;5.398;2023-05-17T06:57:11;12.50;99.90
46652;DHT22;32377;52.182;5.398;2023-05-17T06:59:36;12.30;99.90
46652;DHT22;32377;52.182;5.398;2023-05-17T07:02:02;12.10;99.90
46652;DHT22;32377;52.182;5.398;2023-05-17T07:04:28;11.90;99.90
46652;DHT22;32377;52.182;5.398;2023-05-17T07:06:54;11.90;99.90
46652;DHT22;32377;52.182;5.398;2023-05-17T07:09:20;12.20;99.90
46652;DHT22;32377;52.182;5.398;2023-05-17T07:11:46;12.40;99.90
46652;DHT22;32377;52.182;5.398;2023-05-17T07:14:12;12.60;99.90
46652;DHT22;32377;52.182;5.398;2023-05-17T07:16:38;12.70;99.90
46652;DHT22;32377;52.182;5.398;2023-05-17T07:19:03;12.90;99.90
46652;DHT22;32377;52.182;5.398;2023-05-17T07:21:29;13.00;99.90
46652;DHT22;32377;52.182;5.398;2023-05-17T07:23:55;12.90;99.90
46652;DHT22;32377;52.182;5.398;2023-05-17T07:26:20;13.00;99.90
46652;DHT22;32377;52.182;5.398;2023-05-17T07:28:47;12.80;99.90
46652;DHT22;32377;52.182;5.398;2023-05-17T07:31:13;12.70;99.90
46652;DHT22;32377;52.182;5.398;2023-05-17T07:33:38;12.80;99.90
46652;DHT22;32377;52.182;5.398;2023-05-17T07:36:05;12.90;99.90
46652;DHT22;32377;52.182;5.398;2023-05-17T07:38:31;12.90;99.90
46652;DHT22;32377;52.182;5.398;2023-05-17T07:40:56;12.80;99.90
46652;DHT22;32377;52.182;5.398;2023-05-17T07:43:22;12.90;99.90
46652;DHT22;32377;52.182;5.398;2023-05-17T07:45:48;13.00;99.90
46652;DHT22;32377;52.182;5.398;2023-05-17T07:48:14;13.00;99.90
46652;DHT22;32377;52.182;5.398;2023-05-17T07:50:40;12.60;99.90
46652;DHT22;32377;52.182;5.398;2023-05-17T07:53:06;12.60;99.90
46652;DHT22;32377;52.182;5.398;2023-05-17T07:55:32;12.70;99.90
46652;DHT22;32377;52.182;5.398;2023-05-17T07:57:58;13.20;99.90
46652;DHT22;32377;52.182;5.398;2023-05-17T08:00:23;13.70;99.90
46652;DHT22;32377;52.182;5.398;2023-05-17T08:02:49;13.90;99.90
46652;DHT22;32377;52.182;5.398;2023-05-17T08:05:15;13.70;99.90
46652;DHT22;32377;52.182;5.398;2023-05-17T08:07:41;13.30;99.90
46652;DHT22;32377;52.182;5.398;2023-05-17T08:10:06;13.20;99.90
46652;DHT22;32377;52.182;5.398;2023-05-17T08:12:32;13.30;99.90
46652;DHT22;32377;52.182;5.398;2023-05-17T08:14:58;13.40;99.90
46652;DHT22;32377;52.182;5.398;2023-05-17T08:17:23;13.20;99.90
46652;DHT22;32377;52.182;5.398;2023-05-17T08:19:49;12.80;99.90
46652;DHT22;32377;52.182;5.398;2023-05-17T08:22:15;12.60;99.90
46652;DHT22;32377;52.182;5.398;2023-05-17T08:24:41;12.40;99.90
46652;DHT22;32377;52.182;5.398;2023-05-17T08:27:09;12.50;99.90
46652;DHT22;32377;52.182;5.398;2023-05-17T08:29:35;12.70;99.90
46652;DHT22;32377;52.182;5.398;2023-05-17T08:32:00;12.90;99.90
46652;DHT22;32377;52.182;5.398;2023-05-17T08:34:26;12.80;99.90
46652;DHT22;32377;52.182;5.398;2023-05-17T08:36:51;13.00;99.90
46652;DHT22;32377;52.182;5.398;2023-05-17T08:39:18;13.20;99.90
46652;DHT22;32377;52.182;5.398;2023-05-17T08:41:46;13.30;99.90
46652;DHT22;32377;52.182;5.398;2023-05-17T08:44:13;13.30;99.90
46652;DHT22;32377;52.182;5.398;2023-05-17T08:46:39;13.40;99.90
46652;DHT22;32377;52.182;5.398;2023-05-17T08:49:05;13.50;99.90
46652;DHT22;32377;52.182;5.398;2023-05-17T08:51:32;13.60;99.90
46652;DHT22;32377;52.182;5.398;2023-05-17T08:54:00;13.30;99.90
46652;DHT22;32377;52.182;5.398;2023-05-17T08:56:30;13.00;99.90
46652;DHT22;32377;52.182;5.398;2023-05-17T08:58:57;12.90;99.90
46652;DHT22;32377;52.182;5.398;2023-05-17T09:01:23;13.00;99.90
46652;DHT22;32377;52.182;5.398;2023-05-17T09:03:49;12.90;99.90
46652;DHT22;32377;52.182;5.398;2023-05-17T09:06:20;12.80;99.90
46652;DHT22;32377;52.182;5.398;2023-05-17T09:08:46;13.00;99.90
46652;DHT22;32377;52.182;5.398;2023-05-17T09:11:12;13.10;99.90
46652;DHT22;32377;52.182;5.398;2023-05-17T09:13:47;13.10;99.90
46652;DHT22;32377;52.182;5.398;2023-05-17T09:16:13;13.00;99.90
46652;DHT22;32377;52.182;5.398;2023-05-17T09:18:39;13.00;99.90
46652;DHT22;32377;52.182;5.398;2023-05-17T09:21:04;13.20;99.90
46652;DHT22;32377;52.182;5.398;2023-05-17T09:23:31;13.30;99.90
46652;DHT22;32377;52.182;5.398;2023-05-17T09:26:06;13.50;99.90
46652;DHT22;32377;52.182;5.398;2023-05-17T09:28:39;13.40;99.90
46652;DHT22;32377;52.182;5.398;2023-05-17T09:31:08;13.30;99.90
46652;DHT22;32377;52.182;5.398;2023-05-17T09:33:45;13.40;99.90
46652;DHT22;32377;52.182;5.398;2023-05-17T09:36:22;13.30;99.90
46652;DHT22;32377;52.182;5.398;2023-05-17T09:38:55;13.30;99.90
46652;DHT22;32377;52.182;5.398;2023-05-17T09:41:25;13.40;99.90
46652;DHT22;32377;52.182;5.398;2023-05-17T09:43:52;13.40;99.90
46652;DHT22;32377;52.182;5.398;2023-05-17T09:46:19;13.40;99.90
46652;DHT22;32377;52.182;5.398;2023-05-17T09:48:44;13.30;99.90
46652;DHT22;32377;52.182;5.398;2023-05-17T09:51:11;13.10;99.90
46652;DHT22;32377;52.182;5.398;2023-05-17T09:53:36;13.20;99.90
46652;DHT22;32377;52.182;5.398;2023-05-17T09:59:26;13.70;99.90
46652;DHT22;32377;52.182;5.398;2023-05-17T10:01:54;13.70;99.90
46652;DHT22;32377;52.182;5.398;2023-05-17T10:04:23;13.60;99.90
46652;DHT22;32377;52.182;5.398;2023-05-17T10:06:52;13.60;99.90
46652;DHT22;32377;52.182;5.398;2023-05-17T10:09:21;13.40;99.90
46652;DHT22;32377;52.182;5.398;2023-05-17T10:11:47;13.40;99.90
46652;DHT22;32377;52.182;5.398;2023-05-17T10:16:48;13.80;99.90
46652;DHT22;32377;52.182;5.398;2023-05-17T10:19:14;13.70;99.90
46652;DHT22;32377;52.182;5.398;2023-05-17T10:21:41;13.60;99.90
46652;DHT22;32377;52.182;5.398;2023-05-17T10:24:09;13.40;99.90
46652;DHT22;32377;52.182;5.398;2023-05-17T10:26:35;13.80;99.90
46652;DHT22;32377;52.182;5.398;2023-05-17T10:29:03;14.00;99.90
46652;DHT22;32377;52.182;5.398;2023-05-17T10:31:31;13.90;99.90
46652;DHT22;32377;52.182;5.398;2023-05-17T10:34:04;13.70;99.90
46652;DHT22;32377;52.182;5.398;2023-05-17T10:36:32;13.90;99.90
46652;DHT22;32377;52.182;5.398;2023-05-17T10:38:57;13.60;99.90
46652;DHT22;32377;52.182;5.398;2023-05-17T10:41:26;13.60;99.90
46652;DHT22;32377;52.182;5.398;2023-05-17T10:43:53;13.80;99.90
46652;DHT22;32377;52.182;5.398;2023-05-17T10:46:20;13.70;99.90
46652;DHT22;32377;52.182;5.398;2023-05-17T10:48:51;13.80;99.90
46652;DHT22;32377;52.182;5.398;2023-05-17T10:51:22;13.60;99.70
46652;DHT22;32377;52.182;5.398;2023-05-17T10:54:11;13.80;99.90
46652;DHT22;32377;52.182;5.398;2023-05-17T10:56:50;13.80;99.90
46652;DHT22;32377;52.182;5.398;2023-05-17T10:59:17;13.80;99.90
46652;DHT22;32377;52.182;5.398;2023-05-17T11:02:04;13.90;99.90
46652;DHT22;32377;52.182;5.398;2023-05-17T11:04:38;13.40;99.90
46652;DHT22;32377;52.182;5.398;2023-05-17T11:09:44;13.80;99.80
46652;DHT22;32377;52.182;5.398;2023-05-17T11:12:13;13.70;99.90
46652;DHT22;32377;52.182;5.398;2023-05-17T11:14:53;13.50;99.90
46652;DHT22;32377;52.182;5.398;2023-05-17T11:17:20;13.60;99.90
46652;DHT22;32377;52.182;5.398;2023-05-17T11:20:08;13.60;99.90
46652;DHT22;32377;52.182;5.398;2023-05-17T11:25:27;13.70;99.90
46652;DHT22;32377;52.182;5.398;2023-05-17T11:27:53;13.70;99.90
46652;DHT22;32377;52.182;5.398;2023-05-17T11:30:24;13.80;99.90
46652;DHT22;32377;52.182;5.398;2023-05-17T11:33:08;13.60;99.70
46652;DHT22;32377;52.182;5.398;2023-05-17T11:35:36;13.70;99.80
46652;DHT22;32377;52.182;5.398;2023-05-17T11:40:41;14.00;99.50
46652;DHT22;32377;52.182;5.398;2023-05-17T11:43:18;13.90;99.50
46652;DHT22;32377;52.182;5.398;2023-05-17T11:45:46;13.80;99.80
46652;DHT22;32377;52.182;5.398;2023-05-17T11:48:12;13.80;99.90
46652;DHT22;32377;52.182;5.398;2023-05-17T11:50:39;14.00;99.90
46652;DHT22;32377;52.182;5.398;2023-05-17T11:53:05;13.90;99.90
46652;DHT22;32377;52.182;5.398;2023-05-17T11:55:58;13.90;99.70
46652;DHT22;32377;52.182;5.398;2023-05-17T11:58:26;14.10;99.90
46652;DHT22;32377;52.182;5.398;2023-05-17T12:00:56;14.30;99.90
46652;DHT22;32377;52.182;5.398;2023-05-17T12:03:24;14.40;99.90
46652;DHT22;32377;52.182;5.398;2023-05-17T12:06:01;14.10;99.40
46652;DHT22;32377;52.182;5.398;2023-05-17T12:08:27;14.10;99.90
46652;DHT22;32377;52.182;5.398;2023-05-17T12:10:53;14.10;98.30
46652;DHT22;32377;52.182;5.398;2023-05-17T12:13:20;13.90;98.70
46652;DHT22;32377;52.182;5.398;2023-05-17T12:15:57;13.90;99.00
46652;DHT22;32377;52.182;5.398;2023-05-17T12:18:33;14.00;98.80
46652;DHT22;32377;52.182;5.398;2023-05-17T12:21:00;13.90;99.90
46652;DHT22;32377;52.182;5.398;2023-05-17T12:23:34;14.00;98.90
46652;DHT22;32377;52.182;5.398;2023-05-17T12:26:08;14.00;99.50
46652;DHT22;32377;52.182;5.398;2023-05-17T12:28:35;14.20;99.00
46652;DHT22;32377;52.182;5.398;2023-05-17T12:31:02;14.20;98.80
46652;DHT22;32377;52.182;5.398;2023-05-17T12:33:30;14.10;99.50
46652;DHT22;32377;52.182;5.398;2023-05-17T12:35:56;13.90;99.90
46652;DHT22;32377;52.182;5.398;2023-05-17T12:38:23;13.90;99.00
46652;DHT22;32377;52.182;5.398;2023-05-17T12:40:49;13.90;98.70
46652;DHT22;32377;52.182;5.398;2023-05-17T12:43:15;14.00;98.70
46652;DHT22;32377;52.182;5.398;2023-05-17T12:45:41;13.90;97.20
46652;DHT22;32377;52.182;5.398;2023-05-17T12:48:06;14.00;98.20
46652;DHT22;32377;52.182;5.398;2023-05-17T12:50:32;14.10;97.20
46652;DHT22;32377;52.182;5.398;2023-05-17T12:52:57;14.20;97.80
46652;DHT22;32377;52.182;5.398;2023-05-17T12:55:23;14.00;97.80
46652;DHT22;32377;52.182;5.398;2023-05-17T12:57:53;13.80;97.60
46652;DHT22;32377;52.182;5.398;2023-05-17T13:00:20;13.80;97.80
46652;DHT22;32377;52.182;5.398;2023-05-17T13:02:46;13.80;97.90
46652;DHT22;32377;52.182;5.398;2023-05-17T13:05:19;13.90;97.10
46652;DHT22;32377;52.182;5.398;2023-05-17T13:07:47;13.80;98.00
46652;DHT22;32377;52.182;5.398;2023-05-17T13:10:39;14.00;98.40
46652;DHT22;32377;52.182;5.398;2023-05-17T13:13:04;14.20;98.90
46652;DHT22;32377;52.182;5.398;2023-05-17T13:15:32;14.30;98.30
46652;DHT22;32377;52.182;5.398;2023-05-17T13:17:58;14.30;98.40
46652;DHT22;32377;52.182;5.398;2023-05-17T13:20:25;14.00;98.10
46652;DHT22;32377;52.182;5.398;2023-05-17T13:22:51;14.00;98.30
46652;DHT22;32377;52.182;5.398;2023-05-17T13:25:17;14.00;98.30
46652;DHT22;32377;52.182;5.398;2023-05-17T13:27:44;13.60;98.80
46652;DHT22;32377;52.182;5.398;2023-05-17T13:30:16;13.80;99.20
46652;DHT22;32377;52.182;5.398;2023-05-17T13:32:42;13.70;98.00
46652;DHT22;32377;52.182;5.398;2023-05-17T13:35:08;13.80;98.10
46652;DHT22;32377;52.182;5.398;2023-05-17T13:37:35;13.60;98.10
46652;DHT22;32377;52.182;5.398;2023-05-17T13:40:01;13.80;98.10
46652;DHT22;32377;52.182;5.398;2023-05-17T13:42:27;13.80;98.00
46652;DHT22;32377;52.182;5.398;2023-05-17T13:44:53;14.00;97.50
46652;DHT22;32377;52.182;5.398;2023-05-17T13:47:19;14.20;96.50
46652;DHT22;32377;52.182;5.398;2023-05-17T13:49:44;14.00;96.50
46652;DHT22;32377;52.182;5.398;2023-05-17T13:52:10;14.10;96.90
46652;DHT22;32377;52.182;5.398;2023-05-17T13:54:37;14.20;97.50
46652;DHT22;32377;52.182;5.398;2023-05-17T13:57:04;14.20;98.00
46652;DHT22;32377;52.182;5.398;2023-05-17T13:59:29;14.30;98.30
46652;DHT22;32377;52.182;5.398;2023-05-17T14:01:55;14.20;98.00
46652;DHT22;32377;52.182;5.398;2023-05-17T14:04:22;14.20;98.20
46652;DHT22;32377;52.182;5.398;2023-05-17T14:06:48;14.20;98.30
46652;DHT22;32377;52.182;5.398;2023-05-17T14:09:14;14.10;98.50
46652;DHT22;32377;52.182;5.398;2023-05-17T14:11:39;14.00;97.70
46652;DHT22;32377;52.182;5.398;2023-05-17T14:14:05;14.00;98.20
46652;DHT22;32377;52.182;5.398;2023-05-17T14:16:31;13.90;97.00
46652;DHT22;32377;52.182;5.398;2023-05-17T14:18:56;13.90;97.40
46652;DHT22;32377;52.182;5.398;2023-05-17T14:21:22;13.90;98.30
46652;DHT22;32377;52.182;5.398;2023-05-17T14:23:48;14.00;99.90
46652;DHT22;32377;52.182;5.398;2023-05-17T14:26:13;14.10;98.70
46652;DHT22;32377;52.182;5.398;2023-05-17T14:28:39;14.10;97.60
46652;DHT22;32377;52.182;5.398;2023-05-17T14:31:08;14.00;97.80
46652;DHT22;32377;52.182;5.398;2023-05-17T14:33:34;13.90;97.00
46652;DHT22;32377;52.182;5.398;2023-05-17T14:36:00;13.90;97.00
46652;DHT22;32377;52.182;5.398;2023-05-17T14:38:26;13.80;97.60
46652;DHT22;32377;52.182;5.398;2023-05-17T14:40:52;13.60;97.70
46652;DHT22;32377;52.182;5.398;2023-05-17T14:43:17;13.70;97.60
46652;DHT22;32377;52.182;5.398;2023-05-17T14:45:44;13.80;97.40
46652;DHT22;32377;52.182;5.398;2023-05-17T14:48:10;13.90;97.10
46652;DHT22;32377;52.182;5.398;2023-05-17T14:50:36;13.90;97.40
46652;DHT22;32377;52.182;5.398;2023-05-17T14:53:01;13.90;96.80
46652;DHT22;32377;52.182;5.398;2023-05-17T14:55:27;14.00;96.90
46652;DHT22;32377;52.182;5.398;2023-05-17T14:57:55;14.00;97.10
46652;DHT22;32377;52.182;5.398;2023-05-17T15:00:22;14.00;96.70
46652;DHT22;32377;52.182;5.398;2023-05-17T15:02:49;14.00;96.40
46652;DHT22;32377;52.182;5.398;2023-05-17T15:05:15;14.10;97.60
46652;DHT22;32377;52.182;5.398;2023-05-17T15:07:41;14.00;97.70
46652;DHT22;32377;52.182;5.398;2023-05-17T15:10:07;13.80;98.00
46652;DHT22;32377;52.182;5.398;2023-05-17T15:12:34;13.80;98.80
46652;DHT22;32377;52.182;5.398;2023-05-17T15:15:01;13.70;97.20
46652;DHT22;32377;52.182;5.398;2023-05-17T15:17:26;13.80;98.10
46652;DHT22;32377;52.182;5.398;2023-05-17T15:19:52;14.00;97.90
46652;DHT22;32377;52.182;5.398;2023-05-17T15:22:18;13.90;97.10
46652;DHT22;32377;52.182;5.398;2023-05-17T15:24:44;13.80;98.20
46652;DHT22;32377;52.182;5.398;2023-05-17T15:27:10;13.80;98.70
46652;DHT22;32377;52.182;5.398;2023-05-17T15:29:39;13.80;98.80
46652;DHT22;32377;52.182;5.398;2023-05-17T15:32:07;13.80;98.50
46652;DHT22;32377;52.182;5.398;2023-05-17T15:34:32;13.70;97.80
46652;DHT22;32377;52.182;5.398;2023-05-17T15:36:58;13.60;97.40
46652;DHT22;32377;52.182;5.398;2023-05-17T15:39:24;13.50;97.80
46652;DHT22;32377;52.182;5.398;2023-05-17T15:41:50;13.70;98.90
46652;DHT22;32377;52.182;5.398;2023-05-17T15:44:15;13.70;98.60
46652;DHT22;32377;52.182;5.398;2023-05-17T15:46:41;13.70;98.90
46652;DHT22;32377;52.182;5.398;2023-05-17T15:49:07;13.80;99.50
46652;DHT22;32377;52.182;5.398;2023-05-17T15:51:32;13.70;99.90
46652;DHT22;32377;52.182;5.398;2023-05-17T15:53:58;13.80;99.90
46652;DHT22;32377;52.182;5.398;2023-05-17T15:59:26;13.80;99.90
46652;DHT22;32377;52.182;5.398;2023-05-17T16:01:51;13.60;99.90
46652;DHT22;32377;52.182;5.398;2023-05-17T16:04:17;13.60;99.90
46652;DHT22;32377;52.182;5.398;2023-05-17T16:06:42;13.60;99.90
46652;DHT22;32377;52.182;5.398;2023-05-17T16:09:08;13.70;99.90